Time;durP1;ratioP1;P1;durP2;ratioP2;P2;SDS_P1;SDS_P2;PMS_P1;PMS_P2;Temp;Humidity;BMP_temperature;BMP_pressure;BME280_temperature;BME280_humidity;BME280_pressure;Samples;Min_cycle;Max_cycle;Signal;HPM_P1;HPM_P2
2021/12/16 00:09:25;;;;;;;;;79.75;61.00;;;;;4.14;86.94;100827.25;5011567;28;9007;-75
2021/12/16 00:31:31;;;;;;;;;80.25;58.25;;;;;4.58;84.05;100809.38;4991931;28;8974;-75
2021/12/16 00:34:03;;;;;;;;;81.00;58.75;;;;;4.49;83.93;100815.03;4931257;28;8847;-76
2021/12/16 00:36:35;;;;;;;;;76.00;58.00;;;;;4.63;84.53;100803.59;4942067;28;9602;-76
2021/12/16 00:39:07;;;;;;;;;77.50;58.25;;;;;4.77;84.69;100803.31;4991835;28;8856;-76
2021/12/16 00:41:37;;;;;;;;;67.50;53.75;;;;;4.89;84.13;100806.41;4944098;28;8836;-76
2021/12/16 00:44:14;;;;;;;;;71.75;58.25;;;;;4.86;83.52;100812.34;4999838;28;8879;-75
2021/12/16 00:46:59;;;;;;;;;78.50;58.50;;;;;4.96;83.47;100815.34;5047363;28;8851;-74
2021/12/16 00:49:37;;;;;;;;;74.75;60.25;;;;;4.82;82.79;100819.88;5047549;28;8873;-74
2021/12/16 00:55:08;;;;;;;;;77.50;59.25;;;;;4.68;83.46;100821.88;5030809;28;8862;-75
2021/12/16 00:57:38;;;;;;;;;75.75;60.25;;;;;4.77;83.80;100813.66;5047226;28;8874;-75
2021/12/16 01:00:12;;;;;;;;;75.25;61.75;;;;;4.65;83.27;100817.47;5071043;28;8864;-76
2021/12/16 01:02:55;;;;;;;;;77.00;59.25;;;;;4.53;82.97;100824.66;5081996;28;8865;-75
2021/12/16 01:34:22;;;;;;;;;68.50;54.25;;;;;4.64;84.04;100786.41;4913422;29;8876;-76
2021/12/16 01:42:50;;;;;;;;;65.75;54.00;;;;;4.65;84.13;100789.06;4889081;29;8956;-75
2021/12/16 01:45:44;;;;;;;;;68.75;56.25;;;;;4.38;83.26;100783.53;4902864;28;8889;-75
2021/12/16 01:48:53;;;;;;;;;68.75;55.75;;;;;4.45;84.08;100776.97;4932320;28;8903;-76
2021/12/16 01:51:21;;;;;;;;;70.00;54.75;;;;;4.61;84.25;100779.41;4932364;28;8877;-76
2021/12/16 01:54:29;;;;;;;;;66.25;53.00;;;;;4.61;83.12;100769.09;4932213;28;9000;-76
2021/12/16 01:57:09;;;;;;;;;64.50;52.75;;;;;4.59;82.86;100772.41;4960506;28;8964;-76
2021/12/16 01:59:43;;;;;;;;;64.25;49.00;;;;;4.35;83.19;100780.84;4990350;28;8870;-75
2021/12/16 02:02:34;;;;;;;;;61.25;49.50;;;;;4.48;82.48;100774.53;4987894;28;8867;-76
2021/12/16 02:05:24;;;;;;;;;64.75;53.75;;;;;4.38;83.92;100773.22;5009769;28;8868;-76
2021/12/16 02:08:16;;;;;;;;;64.00;47.25;;;;;4.16;84.34;100775.66;4998444;28;8864;-76
2021/12/16 02:10:54;;;;;;;;;58.00;47.50;;;;;4.28;84.11;100779.69;5009923;28;8864;-76
2021/12/16 02:27:45;;;;;;;;;63.00;51.50;;;;;4.24;85.02;100767.44;4990000;28;9062;-75
2021/12/16 02:33:17;;;;;;;;;60.00;49.50;;;;;4.23;84.62;100767.38;4931511;28;8936;-75
2021/12/16 02:35:48;;;;;;;;;66.00;54.00;;;;;4.35;85.05;100764.44;4930816;28;9796;-76
2021/12/16 02:38:20;;;;;;;;;60.75;50.25;;;;;4.57;84.45;100766.28;4912078;28;8923;-74
2021/12/16 02:40:49;;;;;;;;;61.75;47.50;;;;;4.56;84.46;100755.06;4931765;28;8861;-74
2021/12/16 02:48:59;;;;;;;;;60.25;49.75;;;;;4.49;84.40;100760.78;4931301;28;8895;-75
2021/12/16 02:51:29;;;;;;;;;62.75;49.50;;;;;4.12;85.56;100766.00;4938594;28;8906;-75
2021/12/16 02:54:02;;;;;;;;;61.75;48.50;;;;;4.28;85.48;100759.03;4969174;28;8893;-75
2021/12/16 02:56:30;;;;;;;;;73.50;53.50;;;;;4.06;86.20;100761.44;4983025;28;8867;-75
2021/12/16 02:59:00;;;;;;;;;61.75;49.25;;;;;3.97;86.06;100761.03;4950537;28;8843;-76
2021/12/16 03:01:34;;;;;;;;;66.00;48.75;;;;;3.96;86.39;100769.59;4966603;28;8878;-75
2021/12/16 03:04:06;;;;;;;;;68.50;53.25;;;;;3.76;87.11;100766.97;4966732;28;9333;-76
2021/12/16 03:06:35;;;;;;;;;62.50;47.25;;;;;3.79;87.14;100753.34;4969800;28;8856;-76
2021/12/16 03:09:07;;;;;;;;;60.25;48.75;;;;;3.71;88.47;100753.88;4953894;28;8954;-74
2021/12/16 03:11:45;;;;;;;;;58.25;45.00;;;;;3.82;87.91;100750.88;5011295;28;8878;-77
2021/12/16 03:14:29;;;;;;;;;62.25;50.75;;;;;3.99;87.99;100755.16;5045316;28;8866;-75
2021/12/16 03:17:13;;;;;;;;;65.75;51.00;;;;;4.05;86.92;100752.84;5045113;28;8908;-76
2021/12/16 03:19:59;;;;;;;;;54.25;46.00;;;;;4.20;86.72;100749.19;5012365;28;8880;-75
2021/12/16 03:22:42;;;;;;;;;64.75;49.25;;;;;4.30;86.35;100741.88;5011826;28;8892;-75
2021/12/16 03:25:21;;;;;;;;;62.25;47.50;;;;;4.40;85.84;100748.34;5011728;28;8874;-75
2021/12/16 03:31:07;;;;;;;;;62.00;50.75;;;;;4.56;84.84;100749.91;4983148;28;8905;-78
2021/12/16 03:36:36;;;;;;;;;65.25;46.75;;;;;3.79;86.10;100758.50;4992222;28;8892;-75
2021/12/16 03:39:12;;;;;;;;;61.50;50.25;;;;;3.63;87.43;100752.63;4986259;28;8860;-74
2021/12/16 03:41:42;;;;;;;;;47.00;43.75;;;;;3.88;87.59;100751.19;5005252;28;8865;-75
2021/12/16 03:44:14;;;;;;;;;51.50;43.25;;;;;3.95;87.93;100754.91;5000585;28;8884;-75
2021/12/16 03:46:50;;;;;;;;;58.25;46.50;;;;;4.13;87.58;100753.19;4991695;28;8876;-76
2021/12/16 03:49:25;;;;;;;;;58.50;44.75;;;;;4.30;87.20;100744.47;4992748;28;8856;-77
2021/12/16 03:52:06;;;;;;;;;60.25;49.25;;;;;3.91;87.49;100748.72;5008823;28;8868;-76
2021/12/16 03:54:41;;;;;;;;;57.75;42.75;;;;;4.08;86.36;100747.81;5025273;28;8881;-77
2021/12/16 03:57:14;;;;;;;;;46.75;43.25;;;;;4.15;86.41;100743.81;4981086;28;8876;-76
2021/12/16 03:59:47;;;;;;;;;56.25;49.25;;;;;4.18;86.66;100741.38;4992333;28;8852;-76
2021/12/16 04:02:28;;;;;;;;;48.50;38.75;;;;;3.91;87.39;100751.31;5011073;28;8858;-77
2021/12/16 04:04:59;;;;;;;;;59.00;47.25;;;;;3.83;87.87;100747.50;5028271;28;8889;-75
2021/12/16 04:07:35;;;;;;;;;59.00;46.75;;;;;3.96;86.95;100755.00;5064908;28;8950;-73
2021/12/16 04:10:21;;;;;;;;;60.00;46.67;;;;;4.07;87.55;100756.38;5049610;28;8849;-74
2021/12/16 04:12:52;;;;;;;;;66.75;51.25;;;;;4.26;87.31;100750.31;5032976;28;8861;-75
2021/12/16 04:15:21;;;;;;;;;65.25;49.25;;;;;4.12;86.75;100738.53;5032981;28;9670;-75
2021/12/16 04:17:52;;;;;;;;;59.25;47.00;;;;;4.17;86.90;100742.16;5049058;28;8869;-74
2021/12/16 04:20:22;;;;;;;;;59.00;51.25;;;;;4.12;86.98;100733.34;5016196;28;8880;-77
2021/12/16 04:22:54;;;;;;;;;61.50;51.25;;;;;4.17;87.66;100734.41;5065992;28;8845;-74
2021/12/16 04:25:27;;;;;;;;;66.25;52.25;;;;;4.19;87.33;100732.78;5049204;28;8899;-75
2021/12/16 04:28:00;;;;;;;;;75.50;54.75;;;;;4.32;85.92;100735.94;5049335;28;8990;-75
2021/12/16 04:30:31;;;;;;;;;71.50;55.75;;;;;4.02;86.64;100749.22;5049054;28;8849;-75
2021/12/16 04:33:04;;;;;;;;;57.25;47.75;;;;;3.79;88.51;100751.63;5032636;28;8864;-76
2021/12/16 04:35:35;;;;;;;;;80.75;56.25;;;;;3.61;88.55;100745.63;5082390;28;8845;-73
2021/12/16 04:38:04;;;;;;;;;65.50;51.25;;;;;3.86;88.56;100738.22;5049163;28;8922;-75
2021/12/16 04:40:35;;;;;;;;;61.25;48.50;;;;;4.01;87.94;100732.88;5048202;28;8955;-76
2021/12/16 04:43:09;;;;;;;;;59.25;49.75;;;;;4.12;87.79;100735.03;5032321;28;9664;-75
2021/12/16 04:45:49;;;;;;;;;61.50;49.00;;;;;4.23;87.43;100729.53;5048603;28;8987;-75
2021/12/16 04:48:18;;;;;;;;;64.00;50.75;;;;;4.07;86.84;100747.75;5048640;28;8841;-74
2021/12/16 04:50:48;;;;;;;;;67.00;48.50;;;;;4.21;86.25;100736.31;5048252;28;8849;-76
2021/12/16 04:53:17;;;;;;;;;75.25;53.00;;;;;3.76;87.01;100751.47;5032021;28;8853;-74
2021/12/16 04:55:51;;;;;;;;;58.50;50.00;;;;;3.90;88.47;100747.84;5045815;28;8892;-74
2021/12/16 04:58:21;;;;;;;;;61.25;45.50;;;;;4.11;87.62;100749.66;5049589;28;8879;-75
2021/12/16 05:00:51;;;;;;;;;60.25;50.50;;;;;4.28;87.96;100743.53;5030607;28;9057;-74
2021/12/16 05:03:30;;;;;;;;;58.75;49.25;;;;;4.28;86.22;100745.22;5014182;28;8872;-75
2021/12/16 05:05:59;;;;;;;;;61.00;48.50;;;;;4.03;85.97;100751.00;5013849;28;8857;-75
2021/12/16 05:08:28;;;;;;;;;68.75;54.50;;;;;3.28;90.22;100756.09;4977711;28;8867;-73
2021/12/16 05:11:07;;;;;;;;;53.75;42.00;;;;;3.61;89.84;100753.34;5010673;28;8978;-75
2021/12/16 05:13:44;;;;;;;;;37.75;32.25;;;;;3.68;88.85;100753.72;5027005;28;9606;-74
2021/12/16 05:16:14;;;;;;;;;71.25;49.25;;;;;3.68;88.39;100751.13;4994088;28;8887;-75
2021/12/16 05:18:48;;;;;;;;;60.25;48.50;;;;;3.85;87.89;100754.50;4994001;28;8961;-75
2021/12/16 05:21:48;;;;;;;;;69.25;54.00;;;;;3.56;88.95;100753.16;5026263;28;8833;-76
2021/12/16 05:24:25;;;;;;;;;70.25;53.75;;;;;3.72;88.35;100754.75;5026302;28;8938;-76
2021/12/16 05:27:17;;;;;;;;;93.00;73.00;;;;;3.81;88.96;100762.91;5010402;28;8841;-75
2021/12/16 05:29:48;;;;;;;;;81.00;65.25;;;;;4.04;88.48;100770.81;5010241;28;9746;-75
2021/12/16 05:32:16;;;;;;;;;67.25;51.00;;;;;3.53;88.49;100765.00;5009844;28;8873;-74
2021/12/16 05:34:46;;;;;;;;;64.00;48.00;;;;;3.50;88.68;100763.19;5010137;28;8990;-76
2021/12/16 05:37:15;;;;;;;;;99.00;73.67;;;;;3.62;89.91;100761.16;5044687;28;8850;-74
2021/12/16 05:39:45;;;;;;;;;53.50;44.75;;;;;3.71;88.92;100768.47;5000636;28;9080;-75
2021/12/16 05:42:28;;;;;;;;;61.75;50.25;;;;;3.86;88.17;100774.34;5066189;28;8840;-75
2021/12/16 05:44:58;;;;;;;;;144.50;126.25;;;;;4.06;88.31;100757.19;5082610;28;8867;-76
2021/12/16 05:47:27;;;;;;;;;70.75;58.50;;;;;4.14;87.64;100762.69;5048957;28;11368;-76
2021/12/16 05:49:55;;;;;;;;;94.67;76.67;;;;;4.19;86.92;100765.47;5049189;28;8830;-75
2021/12/16 05:52:24;;;;;;;;;105.50;91.00;;;;;4.37;87.22;100755.09;5073364;28;9308;-75
2021/12/16 05:54:53;;;;;;;;;71.75;52.00;;;;;4.45;86.58;100757.19;5029050;28;10331;-75
2021/12/16 05:57:52;;;;;;;;;57.75;47.50;;;;;4.54;84.86;100755.81;5066994;28;8848;-75
2021/12/16 06:00:26;;;;;;;;;79.25;63.00;;;;;4.60;84.13;100750.94;5047834;28;8915;-75
2021/12/16 06:02:55;;;;;;;;;67.75;57.25;;;;;4.28;85.98;100764.19;5028926;28;8858;-76
2021/12/16 06:05:25;;;;;;;;;67.75;52.75;;;;;4.47;85.15;100757.25;5028774;28;8916;-75
2021/12/16 06:07:55;;;;;;;;;63.25;52.75;;;;;4.10;86.17;100760.78;5031184;28;8931;-76
2021/12/16 06:11:07;;;;;;;;;67.25;54.75;;;;;4.26;86.34;100757.19;5029844;28;8860;-75
2021/12/16 06:13:37;;;;;;;;;58.00;49.50;;;;;4.33;85.67;100751.50;5047953;28;8844;-75
2021/12/16 06:27:15;;;;;;;;;70.25;53.50;;;;;4.21;86.58;100771.59;5044876;28;8864;-76
2021/12/16 06:29:47;;;;;;;;;72.00;52.50;;;;;3.97;85.78;100777.41;5012445;28;8885;-74
2021/12/16 06:32:18;;;;;;;;;70.25;54.25;;;;;3.29;89.18;100783.66;5045042;28;8861;-77
2021/12/16 06:34:47;;;;;;;;;71.50;52.75;;;;;2.88;91.21;100790.22;5012073;28;8853;-76
2021/12/16 06:37:17;;;;;;;;;65.00;52.25;;;;;2.62;94.52;100782.03;5044804;28;9130;-76
2021/12/16 06:39:46;;;;;;;;;57.25;48.00;;;;;2.84;94.36;100793.44;5028203;28;8938;-75
2021/12/16 06:42:26;;;;;;;;;71.50;55.25;;;;;3.24;93.24;100786.00;5028460;28;8845;-74
2021/12/16 06:45:04;;;;;;;;;62.25;49.00;;;;;3.32;90.74;100783.78;5028134;28;8837;-75
2021/12/16 06:47:42;;;;;;;;;53.00;45.25;;;;;3.53;91.23;100788.22;5044443;28;8861;-75
2021/12/16 06:50:13;;;;;;;;;68.25;53.00;;;;;3.45;89.86;100801.63;5028212;28;8930;-76
2021/12/16 06:52:47;;;;;;;;;60.00;47.75;;;;;3.71;89.39;100792.56;5044938;28;8856;-74
2021/12/16 06:55:23;;;;;;;;;65.25;49.75;;;;;3.59;88.25;100802.31;5044870;28;8861;-75
2021/12/16 06:57:55;;;;;;;;;61.25;50.50;;;;;3.68;89.08;100794.09;5036508;28;8851;-75
2021/12/16 07:00:32;;;;;;;;;63.00;49.75;;;;;3.92;88.36;100788.34;5004894;28;8886;-74
2021/12/16 07:03:05;;;;;;;;;71.75;57.50;;;;;3.82;87.87;100782.75;5003629;28;8889;-77
2021/12/16 07:05:38;;;;;;;;;68.25;54.50;;;;;4.00;88.00;100779.25;5001084;28;8855;-76
2021/12/16 07:08:12;;;;;;;;;68.75;54.25;;;;;3.92;86.71;100788.34;4988604;28;8862;-74
2021/12/16 07:10:45;;;;;;;;;64.50;50.75;;;;;4.21;87.60;100789.66;4971925;28;8967;-73
2021/12/16 07:13:19;;;;;;;;;64.75;54.25;;;;;4.49;87.16;100782.31;5005081;28;8897;-76
2021/12/16 07:15:50;;;;;;;;;56.25;45.25;;;;;4.59;85.29;100774.97;5004706;28;8866;-74
2021/12/16 07:18:20;;;;;;;;;65.25;51.50;;;;;4.72;84.75;100779.84;5004777;28;8897;-77
2021/12/16 07:20:49;;;;;;;;;61.00;49.50;;;;;4.84;84.35;100779.53;5006246;28;8901;-76
2021/12/16 07:23:20;;;;;;;;;67.75;55.50;;;;;4.71;83.64;100778.09;5008475;28;8834;-75
2021/12/16 07:25:49;;;;;;;;;80.00;58.25;;;;;4.86;83.82;100773.59;4992256;28;8850;-75
2021/12/16 07:28:18;;;;;;;;;67.50;55.50;;;;;4.98;83.86;100775.78;4976010;28;8850;-73
2021/12/16 07:30:47;;;;;;;;;60.50;51.50;;;;;5.15;83.58;100771.31;5014791;28;8953;-77
2021/12/16 07:33:17;;;;;;;;;68.50;56.75;;;;;5.17;82.86;100771.41;5049354;28;9052;-75
2021/12/16 07:35:49;;;;;;;;;71.50;57.75;;;;;5.26;82.46;100772.66;5049084;28;8873;-74
2021/12/16 07:38:19;;;;;;;;;68.50;53.50;;;;;5.19;81.71;100765.44;5049531;28;8884;-76
2021/12/16 07:40:50;;;;;;;;;73.50;57.25;;;;;5.23;82.00;100759.56;5049901;28;8845;-74
2021/12/16 07:43:40;;;;;;;;;76.75;59.50;;;;;5.34;82.15;100765.19;5049419;28;8849;-75
2021/12/16 07:46:11;;;;;;;;;72.75;58.25;;;;;5.18;80.49;100766.28;5050462;28;8979;-77
2021/12/16 07:48:40;;;;;;;;;66.25;52.25;;;;;5.27;81.70;100769.25;5049180;28;8954;-78
2021/12/16 07:51:10;;;;;;;;;69.25;56.75;;;;;5.04;80.94;100788.09;5065742;28;8883;-74
2021/12/16 07:53:40;;;;;;;;;73.50;57.50;;;;;4.51;83.06;100779.81;5065750;28;8837;-75
2021/12/16 07:56:09;;;;;;;;;69.25;54.75;;;;;3.97;84.97;100784.25;5024088;28;8854;-75
2021/12/16 07:58:38;;;;;;;;;66.75;53.50;;;;;3.90;86.78;100780.53;4995511;28;8894;-77
2021/12/16 08:01:08;;;;;;;;;72.75;59.75;;;;;3.68;88.02;100791.53;5026114;28;8875;-76
2021/12/16 08:03:38;;;;;;;;;72.50;57.00;;;;;3.42;89.96;100787.69;5023338;28;9603;-75
2021/12/16 08:06:12;;;;;;;;;74.75;55.75;;;;;3.73;88.86;100782.31;5013996;28;8880;-75
2021/12/16 08:08:42;;;;;;;;;58.50;47.75;;;;;4.01;88.64;100787.06;5011052;28;9602;-74
2021/12/16 08:11:10;;;;;;;;;72.00;56.75;;;;;4.08;87.57;100785.63;5000623;28;8884;-75
2021/12/16 08:13:39;;;;;;;;;73.00;55.25;;;;;4.37;87.06;100792.13;5003144;28;8964;-75
2021/12/16 08:16:09;;;;;;;;;72.00;53.75;;;;;4.60;85.50;100779.34;4971938;28;8884;-74
2021/12/16 08:18:37;;;;;;;;;78.75;62.25;;;;;4.53;84.57;100779.88;4987476;28;8968;-76
2021/12/16 08:21:07;;;;;;;;;68.00;54.50;;;;;4.62;84.96;100783.75;4971987;28;8928;-77
2021/12/16 08:23:37;;;;;;;;;65.25;52.00;;;;;4.72;83.82;100776.41;4987446;28;8903;-76
2021/12/16 08:26:06;;;;;;;;;72.50;56.00;;;;;4.91;84.23;100785.81;4972043;28;8873;-74
2021/12/16 08:28:35;;;;;;;;;68.50;55.75;;;;;4.52;84.79;100780.69;4987631;28;8979;-73
2021/12/16 08:31:05;;;;;;;;;74.75;56.00;;;;;4.81;83.75;100776.78;4970704;28;8886;-74
2021/12/16 08:33:34;;;;;;;;;65.25;55.75;;;;;4.80;84.09;100775.00;4969569;28;8868;-74
2021/12/16 08:36:04;;;;;;;;;73.25;58.25;;;;;4.78;84.05;100777.56;4971015;28;8876;-74
2021/12/16 08:38:33;;;;;;;;;67.50;53.50;;;;;4.96;84.39;100777.44;4987426;28;8898;-74
2021/12/16 08:41:08;;;;;;;;;66.00;54.25;;;;;5.21;84.01;100768.97;4971706;28;8868;-73
2021/12/16 08:43:39;;;;;;;;;67.25;53.25;;;;;5.41;83.36;100771.50;4993725;28;8901;-77
2021/12/16 08:46:12;;;;;;;;;73.75;57.25;;;;;5.59;82.75;100767.03;5059941;28;8961;-74
2021/12/16 08:48:42;;;;;;;;;80.50;63.50;;;;;5.76;82.18;100772.88;4994124;28;8860;-76
2021/12/16 08:51:11;;;;;;;;;80.25;62.50;;;;;5.84;81.37;100781.84;5042507;28;8872;-75
2021/12/16 08:53:40;;;;;;;;;76.50;60.75;;;;;5.91;80.82;100774.31;5025522;28;8864;-75
2021/12/16 08:56:12;;;;;;;;;77.25;62.25;;;;;5.96;80.39;100772.81;5025980;28;8849;-74
2021/12/16 08:58:43;;;;;;;;;84.00;66.25;;;;;6.05;80.34;100773.16;5044423;28;8864;-75
2021/12/16 09:01:14;;;;;;;;;77.50;60.75;;;;;6.23;80.26;100779.00;5045344;28;8861;-76
2021/12/16 09:03:43;;;;;;;;;82.75;64.00;;;;;6.27;80.00;100779.13;5045601;28;8861;-75
2021/12/16 09:06:13;;;;;;;;;76.25;59.50;;;;;6.34;79.46;100769.03;5047049;28;8868;-74
2021/12/16 09:08:42;;;;;;;;;79.75;62.25;;;;;6.40;79.38;100774.44;5029648;28;8895;-75
2021/12/16 09:11:18;;;;;;;;;82.25;63.25;;;;;6.50;78.79;100775.66;5045894;28;8872;-76
2021/12/16 09:13:49;;;;;;;;;85.50;66.75;;;;;6.52;78.58;100758.47;5046647;28;8837;-75
2021/12/16 09:16:23;;;;;;;;;90.00;68.50;;;;;6.59;78.70;100762.16;5080072;28;8853;-75
2021/12/16 09:18:52;;;;;;;;;88.75;70.50;;;;;6.61;77.77;100757.91;5062996;28;8875;-75
2021/12/16 09:21:24;;;;;;;;;87.25;68.75;;;;;6.66;78.21;100761.53;5030325;28;8872;-74
2021/12/16 09:23:54;;;;;;;;;84.75;63.50;;;;;6.68;77.61;100748.63;5046497;28;8871;-75
2021/12/16 09:26:26;;;;;;;;;87.25;67.00;;;;;6.61;77.78;100752.72;5045895;28;8958;-75
2021/12/16 09:28:56;;;;;;;;;88.75;68.00;;;;;6.68;77.81;100738.28;5046140;28;9075;-75
2021/12/16 09:31:27;;;;;;;;;79.50;62.50;;;;;6.54;76.42;100748.13;5046429;28;8887;-75
2021/12/16 09:34:02;;;;;;;;;80.25;62.00;;;;;6.58;77.48;100740.53;5044824;28;8855;-75
2021/12/16 09:36:31;;;;;;;;;85.00;65.00;;;;;6.67;77.79;100733.91;5028766;28;8888;-76
2021/12/16 09:39:00;;;;;;;;;85.50;66.75;;;;;6.73;76.96;100740.19;5046684;28;8841;-74
2021/12/16 09:41:30;;;;;;;;;86.50;63.50;;;;;6.80;77.08;100728.31;5046757;28;8880;-75
2021/12/16 09:44:00;;;;;;;;;76.25;60.50;;;;;6.95;77.83;100728.81;5047752;28;8853;-75
2021/12/16 09:46:31;;;;;;;;;85.25;67.75;;;;;6.36;75.97;100723.34;5046645;28;8861;-75
2021/12/16 09:49:00;;;;;;;;;84.25;64.50;;;;;6.14;78.32;100726.88;5063017;28;8845;-75
2021/12/16 09:51:32;;;;;;;;;85.00;64.25;;;;;6.31;78.78;100727.47;5045934;28;8959;-75
2021/12/16 09:54:05;;;;;;;;;86.75;66.25;;;;;6.44;78.71;100723.63;5000255;28;14055;-75
2021/12/16 09:56:38;;;;;;;;;81.25;64.25;;;;;6.23;77.84;100719.44;5023490;28;8869;-76
2021/12/16 09:59:10;;;;;;;;;82.00;64.00;;;;;6.46;79.01;100724.53;5028253;28;8883;-73
2021/12/16 10:01:39;;;;;;;;;90.75;67.25;;;;;6.55;78.49;100729.19;5027907;28;8920;-75
2021/12/16 10:04:15;;;;;;;;;24.50;9.50;;;;;6.60;77.89;100725.91;5028313;28;8980;-75
2021/12/16 10:06:44;;;;;;;;;84.25;66.00;;;;;6.55;77.59;100716.22;5057652;28;8853;-75
2021/12/16 10:09:13;;;;;;;;;85.25;68.00;;;;;6.65;77.28;100723.47;5030523;28;8980;-75
2021/12/16 10:11:51;;;;;;;;;88.00;68.25;;;;;6.31;77.50;100716.25;5025285;28;8867;-75
2021/12/16 10:14:32;;;;;;;;;94.75;71.00;;;;;6.43;77.96;100716.69;5016795;28;8927;-76
2021/12/16 10:19:48;;;;;;;;;78.50;61.00;;;;;5.35;81.91;100704.00;4997473;28;8862;-75
2021/12/16 10:22:24;;;;;;;;;89.75;70.50;;;;;5.77;81.75;100702.19;5042634;28;8889;-74
2021/12/16 10:24:57;;;;;;;;;94.25;68.75;;;;;6.08;81.67;100707.66;5025951;28;8934;-75
2021/12/16 10:27:28;;;;;;;;;88.00;69.25;;;;;6.30;80.68;100702.41;5024625;28;8979;-75
2021/12/16 10:30:00;;;;;;;;;85.25;68.25;;;;;6.35;79.89;100702.56;5025491;28;8955;-74
2021/12/16 10:32:37;;;;;;;;;93.00;69.75;;;;;6.40;78.24;100694.13;5026497;28;8877;-74
2021/12/16 10:35:12;;;;;;;;;91.25;68.75;;;;;6.56;78.53;100687.78;5024807;28;8852;-75
2021/12/16 10:37:43;;;;;;;;;84.75;67.75;;;;;6.39;76.48;100689.78;5025245;28;9021;-73
2021/12/16 10:40:34;;;;;;;;;88.75;70.00;;;;;6.61;77.99;100691.38;5044952;28;8865;-74
2021/12/16 10:43:09;;;;;;;;;83.00;65.25;;;;;6.36;77.89;100684.50;5027778;28;8870;-74
2021/12/16 10:45:41;;;;;;;;;91.75;68.50;;;;;6.52;77.78;100687.59;5030532;28;9132;-76
2021/12/16 10:48:14;;;;;;;;;82.50;64.00;;;;;6.54;76.40;100684.25;5026991;28;9183;-77
2021/12/16 10:50:56;;;;;;;;;86.25;67.75;;;;;6.35;77.73;100685.34;5027528;28;8865;-74
2021/12/16 10:53:46;;;;;;;;;89.25;69.50;;;;;6.58;76.80;100680.94;5035827;28;8946;-75
2021/12/16 10:56:17;;;;;;;;;89.00;67.25;;;;;6.72;78.37;100673.59;5025933;28;8900;-76
2021/12/16 10:58:55;;;;;;;;;87.00;67.75;;;;;6.92;77.38;100668.19;5056667;28;9485;-74
2021/12/16 11:01:40;;;;;;;;;83.00;66.25;;;;;6.93;75.61;100667.38;5027878;28;8866;-75
2021/12/16 11:04:12;;;;;;;;;84.75;64.25;;;;;6.68;75.73;100671.75;4972585;28;8850;-75
2021/12/16 11:06:46;;;;;;;;;86.00;67.50;;;;;6.88;75.00;100664.66;5023082;28;8950;-75
2021/12/16 11:09:43;;;;;;;;;78.25;63.25;;;;;7.00;76.54;100657.25;5019853;28;8862;-75
2021/12/16 11:12:29;;;;;;;;;85.50;65.00;;;;;7.05;76.31;100664.28;4951903;28;8867;-75
2021/12/16 11:15:01;;;;;;;;;84.75;67.00;;;;;7.11;76.41;100661.91;4931336;29;9844;-74
2021/12/16 11:17:34;;;;;;;;;89.00;68.50;;;;;7.04;76.10;100655.63;4908829;29;8850;-75
2021/12/16 11:20:11;;;;;;;;;81.50;63.50;;;;;7.20;75.53;100660.47;4945407;29;8869;-75
2021/12/16 11:22:47;;;;;;;;;83.75;65.75;;;;;6.97;75.92;100651.06;4946158;29;8858;-75
2021/12/16 11:25:23;;;;;;;;;82.00;63.75;;;;;7.01;75.04;100659.00;4961735;28;8925;-77
2021/12/16 11:27:55;;;;;;;;;93.75;70.00;;;;;6.91;76.23;100653.47;4926130;29;8876;-76
2021/12/16 11:30:32;;;;;;;;;93.00;70.75;;;;;6.19;77.01;100654.53;4933851;29;8915;-74
2021/12/16 11:33:26;;;;;;;;;90.25;68.00;;;;;6.65;76.63;100650.91;4961755;28;9023;-75
2021/12/16 11:35:58;;;;;;;;;86.00;66.75;;;;;6.76;77.86;100644.34;4926365;29;8837;-73
2021/12/16 11:38:33;;;;;;;;;83.25;65.25;;;;;6.72;76.52;100644.22;4937269;29;8865;-75
2021/12/16 11:41:19;;;;;;;;;87.00;67.75;;;;;6.92;76.68;100640.56;4915546;29;8975;-75
2021/12/16 11:44:04;;;;;;;;;60.00;44.00;;;;;7.06;76.63;100637.53;4913816;29;8969;-75
2021/12/16 11:46:39;;;;;;;;;79.50;63.50;;;;;6.83;77.24;100635.97;4925058;29;8864;-75
2021/12/16 11:49:22;;;;;;;;;77.25;60.50;;;;;6.24;78.38;100640.03;4962686;28;8876;-76
2021/12/16 11:51:57;;;;;;;;;81.00;63.25;;;;;6.44;78.39;100633.81;4985188;28;8886;-75
2021/12/16 11:54:28;;;;;;;;;90.25;67.50;;;;;6.49;78.78;100646.94;4987179;28;8874;-75
2021/12/16 11:57:01;;;;;;;;;80.75;63.00;;;;;6.61;78.70;100636.97;4986209;28;8879;-77
2021/12/16 11:59:35;;;;;;;;;81.75;64.75;;;;;6.80;78.13;100637.56;4999322;28;8826;-74
2021/12/16 12:02:07;;;;;;;;;84.50;65.00;;;;;6.60;77.17;100639.53;4979113;28;9722;-75
2021/12/16 12:04:38;;;;;;;;;83.25;64.00;;;;;6.47;77.25;100640.81;4997068;28;8974;-75
2021/12/16 12:07:13;;;;;;;;;83.25;64.00;;;;;6.52;77.62;100641.88;5001209;28;8986;-75
2021/12/16 12:09:45;;;;;;;;;79.75;62.75;;;;;6.41;77.78;100638.03;5004250;28;8878;-76
2021/12/16 12:12:15;;;;;;;;;80.00;63.75;;;;;6.61;78.02;100636.97;4978475;28;8871;-76
2021/12/16 12:14:45;;;;;;;;;82.50;63.00;;;;;6.71;78.33;100635.56;5046538;28;8925;-74
2021/12/16 12:17:20;;;;;;;;;77.00;62.00;;;;;6.01;78.89;100652.16;5027794;28;8978;-75
2021/12/16 12:19:53;;;;;;;;;85.00;64.75;;;;;6.11;79.83;100654.25;5010263;28;8882;-77
2021/12/16 12:22:25;;;;;;;;;88.25;68.75;;;;;6.33;78.88;100647.22;4964750;28;9608;-75
2021/12/16 12:24:56;;;;;;;;;89.75;69.00;;;;;6.03;79.86;100646.22;4970648;28;8874;-74
2021/12/16 12:27:26;;;;;;;;;86.50;64.00;;;;;6.15;79.01;100644.91;4955800;28;8877;-74
2021/12/16 12:29:57;;;;;;;;;82.25;64.75;;;;;6.08;79.21;100637.72;4955370;28;8866;-75
2021/12/16 12:32:30;;;;;;;;;90.00;66.50;;;;;5.98;80.04;100645.16;4972374;28;8858;-76
2021/12/16 12:35:02;;;;;;;;;85.00;66.75;;;;;5.96;79.79;100643.38;4969662;28;8880;-73
2021/12/16 12:37:35;;;;;;;;;88.00;65.50;;;;;5.96;79.25;100633.00;4952308;28;8964;-76
2021/12/16 12:40:08;;;;;;;;;87.75;69.00;;;;;5.88;80.11;100631.78;4937827;28;8878;-75
2021/12/16 12:42:38;;;;;;;;;77.50;63.25;;;;;6.02;81.52;100636.69;4931572;28;8848;-75
2021/12/16 12:45:09;;;;;;;;;79.75;62.25;;;;;5.96;81.15;100630.41;4987406;28;8870;-74
2021/12/16 12:47:44;;;;;;;;;85.00;65.25;;;;;6.15;80.39;100621.59;4986373;28;8830;-75
2021/12/16 12:50:17;;;;;;;;;89.25;69.75;;;;;5.91;81.29;100619.84;4968910;28;8850;-74
2021/12/16 12:52:50;;;;;;;;;86.50;68.75;;;;;6.06;80.89;100609.19;4974981;28;8869;-77
2021/12/16 12:55:26;;;;;;;;;83.75;63.25;;;;;6.21;81.26;100611.44;5028763;28;9649;-75
2021/12/16 12:58:02;;;;;;;;;85.67;67.00;;;;;6.25;79.40;100590.84;5008197;28;8864;-74
2021/12/16 13:00:35;;;;;;;;;73.75;53.75;;;;;6.39;80.57;100593.03;5009150;28;8881;-74
2021/12/16 13:03:09;;;;;;;;;85.00;66.75;;;;;6.46;79.41;100591.53;5024854;28;8861;-76
2021/12/16 13:05:40;;;;;;;;;87.50;70.00;;;;;6.53;79.60;100599.56;5044002;28;8861;-76
2021/12/16 13:08:12;;;;;;;;;93.25;71.00;;;;;6.64;78.94;100599.91;5017806;28;10121;-74
2021/12/16 13:10:44;;;;;;;;;85.00;68.50;;;;;6.72;78.77;100594.97;5043447;28;8943;-75
2021/12/16 13:13:28;;;;;;;;;90.75;69.50;;;;;6.83;79.59;100602.25;5050140;28;8978;-75
2021/12/16 13:16:20;;;;;;;;;89.33;70.00;;;;;6.86;78.14;100611.84;5027834;28;8872;-74
2021/12/16 13:25:02;;;;;;;;;91.33;69.33;;;;;6.91;77.38;100610.28;4965115;28;8944;-75
2021/12/16 13:27:42;;;;;;;;;94.00;71.00;;;;;6.97;78.37;100602.69;4968860;28;9097;-76
2021/12/16 13:30:20;;;;;;;;;89.50;68.75;;;;;7.01;77.85;100609.75;4969771;28;8882;-74
2021/12/16 13:33:19;;;;;;;;;90.67;70.33;;;;;7.16;77.36;100621.41;4970225;28;8858;-75
2021/12/16 13:36:00;;;;;;;;;89.33;68.33;;;;;6.98;77.84;100616.53;4968908;28;8959;-75
2021/12/16 13:38:38;;;;;;;;;85.75;65.00;;;;;6.93;78.11;100618.09;4964803;28;9025;-75
2021/12/16 13:41:09;;;;;;;;;96.50;72.00;;;;;6.74;77.17;100627.00;5002273;28;9053;-74
2021/12/16 13:43:39;;;;;;;;;91.75;71.00;;;;;6.70;78.95;100623.44;4985221;28;8968;-76
2021/12/16 14:03:23;;;;;;;;;87.00;68.00;;;;;6.58;80.95;100625.63;5008835;28;8872;-74
2021/12/16 14:06:09;;;;;;;;;83.50;64.75;;;;;6.50;80.93;100627.06;5008703;28;9665;-74
2021/12/16 14:08:43;;;;;;;;;90.50;68.25;;;;;6.16;80.97;100620.75;5015391;28;8869;-75